CST,Max TemperatureF,Mean TemperatureF,Min TemperatureF,Max Dew PointF,MeanDew PointF,Min DewpointF,Max Humidity, Mean Humidity, Min Humidity, Max Sea Level PressureIn, Mean Sea Level PressureIn, Min Sea Level PressureIn, Max VisibilityMiles, Mean VisibilityMiles, Min VisibilityMiles, Max Wind SpeedMPH, Mean Wind SpeedMPH, Max Gust SpeedMPH,PrecipitationIn, CloudCover, Events, WindDirDegrees
2012-11-1,66,52,37,45,38,34,93,63,35,30.08,30.01,29.94,10,10,10,10,5,,0.00,0,,216
2012-11-2,68,54,41,46,42,39,93,66,40,30.05,29.98,29.93,10,8,0,17,7,,0.00,0,,63
2012-11-3,75,60,44,55,44,37,87,63,36,30.15,30.01,29.95,10,10,10,17,8,25,0.00,0,,331
2012-11-4,57,47,37,39,37,34,93,72,44,30.24,30.19,30.14,10,9,1,10,6,,0.00,0,,24
2012-11-5,48,44,39,45,41,36,100,87,71,30.16,30.07,29.99,10,9,4,9,5,,0.10,5,,58
2012-11-6,51,45,39,45,42,39,100,87,71,30.11,30.04,29.98,10,8,4,12,6,,0.00,6,,286
2012-11-7,55,46,37,41,35,32,93,69,41,30.20,30.09,29.99,10,10,9,23,9,30,0.00,3,,333
2012-11-8,57,44,30,39,36,28,100,78,48,30.29,30.20,30.13,10,10,4,13,4,16,0.00,0,,176
2012-11-9,69,55,41,54,45,37,93,72,52,30.17,30.11,30.04,10,10,9,23,9,28,0.00,1,,182
2012-11-10,71,60,48,57,51,43,93,73,56,30.17,30.09,30.04,10,10,10,23,12,29,0.00,1,,177
2012-11-11,71,61,51,61,55,50,100,78,64,30.09,30.00,29.88,10,10,6,30,16,37,0.46,7,Thunderstorm,191
2012-11-12,51,43,35,50,29,23,94,61,33,30.50,30.37,30.10,10,10,10,23,11,30,0.10,2,,300
2012-11-13,51,40,30,34,29,25,87,68,38,30.55,30.48,30.43,10,7,0,8,5,,0.00,0,,18
2012-11-14,50,42,32,34,31,28,93,72,46,30.49,30.41,30.35,10,10,5,13,7,,0.00,0,,22
2012-11-15,53,40,28,36,31,25,93,75,38,30.42,30.36,30.33,10,8,1,8,5,,0.00,0,,10
2012-11-16,55,44,32,37,32,27,93,70,33,30.47,30.42,30.39,10,9,0,10,5,,0.00,0,,6
2012-11-17,57,42,28,39,33,10,87,71,38,30.50,30.43,30.28,10,9,0,9,6,,0.00,0,,17
2012-11-18,60,45,30,45,36,28,93,77,42,30.42,30.37,30.32,10,7,0,8,4,,0.00,0,,15
2012-11-19,60,48,37,48,42,34,93,79,52,30.33,30.26,30.17,10,9,6,8,4,,0.00,4,,183
2012-11-20,71,58,46,52,46,43,93,72,41,30.19,30.14,30.07,10,10,10,12,6,,0.00,1,,253
2012-11-21,64,53,42,50,45,39,100,80,52,30.31,30.24,30.19,10,6,0,9,5,,0.00,0,,310
2012-11-22,64,50,37,52,45,36,100,83,56,30.20,30.15,30.07,10,6,0,20,6,25,0.08,3,,190
2012-11-23,57,45,33,54,35,23,100,62,36,30.39,30.28,30.13,10,9,3,23,11,28,0.03,1,,310
2012-11-24,42,34,26,28,23,18,87,67,39,30.43,30.30,30.14,10,9,0,12,7,,0.00,0,,234
2012-11-25,57,44,30,39,33,27,93,71,44,30.14,30.04,29.96,10,10,10,20,10,25,0.00,0,,181
2012-11-26,48,42,37,45,38,34,93,83,71,30.32,30.13,30.03,10,10,5,24,8,29,0.02,6,,26
2012-11-27,46,38,30,34,29,25,93,74,50,30.46,30.39,30.32,10,10,2,14,8,17,0.00,1,,19
2012-11-28,50,37,24,36,31,23,100,81,50,30.51,30.43,30.37,10,8,3,8,2,,0.00,0,,144
2012-11-29,55,42,28,37,33,27,100,77,47,30.37,30.30,30.23,10,10,5,20,5,,0.00,0,,172
2012-11-30,60,46,33,50,41,30,88,76,54,30.25,30.21,30.16,10,10,8,17,8,,0.00,4,,185